Data for 12/05/2014

Time Sea-Level Adjusted Pressure Absolute Pressure Temperature Relative Humidity Dew Point   
(mb) (inHg) (mb) (inHg) (C) (F) (%) (C) (F)
00:05 1017 30.03 846 24.98 3.8 38.9 77 0.2 32.3
00:10 1017 30.03 846 24.98 3.8 38.8 77 0.1 32.3
00:15 1017 30.03 846 24.98 3.7 38.7 77 0 32
00:20 1017 30.03 846 24.98 3.6 38.5 77 -0.1 31.8
00:25 1017 30.03 846 24.98 4 39.2 74 -0.2 31.7
00:30 1017 30.03 846 24.98 4.2 39.6 74 -0 31.9
00:35 1017 30.03 846 24.98 4.4 39.8 74 0.1 32.1
00:40 1017 30.03 846 24.98 4.6 40.3 73 0.2 32.4
00:45 1017 30.03 846 24.98 4.7 40.5 73 0.2 32.4
00:50 1017 30.03 846 24.98 4.4 39.9 75 0.4 32.7
00:55 1017 30.03 846 24.98 3.8 38.9 76 0 32
01:00 1017 30.03 846 24.98 3.9 39 76 0.1 32.2
01:05 1017 30.03 846 24.98 3.9 38.9 76 -0 31.9
01:10 1017 30.03 846 24.98 4 39.2 74 -0.2 31.7
01:15 1017 30.03 846 24.98 4.2 39.6 73 -0.2 31.7
01:20 1017 30.03 846 24.98 4.3 39.8 73 -0.1 31.9
01:25 1017 30.03 846 24.98 4.3 39.7 74 0.1 32.2
01:30 1017 30.03 846 24.98 4.3 39.7 74 0 32
01:35 1017 30.03 847 25.01 4.3 39.7 74 0.1 32.2
01:40 1017 30.03 847 25.01 4 39.3 76 0.2 32.3
01:45 1017 30.03 847 25.01 3.8 38.8 78 0.2 32.4
01:50 1018 30.06 847 25.01 3.5 38.3 79 0.2 32.3
01:55 1017 30.03 847 25.01 3.4 38 79 0.1 32.1
02:00 1017 30.03 847 25.01 3.3 38 79 0.1 32.1
02:05 1018 30.06 847 25.01 3.3 38 79 0.1 32.1
02:10 1018 30.06 847 25.01 3.4 38 78 -0.1 31.8
02:15 1018 30.06 847 25.01 3.4 38.1 79 0.1 32.1
02:20 1018 30.06 847 25.01 3.4 38 79 -0 32
02:25 1018 30.06 847 25.01 3.5 38.3 78 -0.1 31.9
02:30 1018 30.06 847 25.01 3.4 38.2 77 -0.3 31.5
02:35 1018 30.06 847 25.01 3.5 38.2 76 -0.4 31.2
02:40 1018 30.06 847 25.01 3.5 38.2 76 -0.4 31.2
02:45 1018 30.06 847 25.01 3.5 38.4 74 -0.7 30.8
02:50 1018 30.06 847 25.01 3.6 38.5 75 -0.4 31.3
02:55 1018 30.06 847 25.01 3.8 38.8 72 -0.8 30.6
03:00 1018 30.06 847 25.01 3.7 38.7 74 -0.4 31.3
03:05 1018 30.06 847 25.01 3.9 39 72 -0.8 30.6
03:10 1018 30.06 847 25.01 4.1 39.3 72 -0.5 31.1
03:15 1018 30.06 847 25.01 4 39.1 73 -0.4 31.3
03:20 1018 30.06 848 25.04 3.6 38.6 75 -0.4 31.3
03:25 1018 30.06 848 25.04 3.7 38.6 73 -0.7 30.7
03:30 1018 30.06 848 25.04 4.2 39.5 71 -0.6 31
03:35 1019 30.09 848 25.04 3.9 39.1 74 -0.3 31.4
03:40 1019 30.09 848 25.04 3.9 38.9 73 -0.6 31
03:45 1019 30.09 848 25.04 3.9 39 73 -0.5 31.1
03:50 1019 30.09 848 25.04 4.3 39.7 71 -0.5 31.1
03:55 1019 30.09 848 25.04 4.8 40.6 69 -0.5 31.2
04:00 1019 30.09 848 25.04 4.5 40.1 71 -0.2 31.6
04:05 1019 30.09 848 25.04 4.1 39.4 73 -0.4 31.3
04:10 1019 30.09 848 25.04 3.8 38.9 74 -0.4 31.3
04:15 1019 30.09 848 25.04 3.5 38.3 77 -0.3 31.5
04:20 1019 30.09 848 25.04 3.3 37.9 77 -0.3 31.4
04:25 1019 30.09 848 25.04 3.1 37.6 79 -0.2 31.6
04:30 1019 30.09 848 25.04 3.1 37.6 78 -0.3 31.4
04:35 1019 30.09 848 25.04 3.3 37.9 78 -0.2 31.6
04:40 1019 30.09 848 25.04 3.3 37.9 77 -0.3 31.4
04:45 1019 30.09 848 25.04 3.4 38.2 76 -0.3 31.4
04:50 1019 30.09 848 25.04 3.7 38.6 75 -0.4 31.3
04:55 1019 30.09 848 25.04 3.8 38.8 75 -0.3 31.5
05:00 1019 30.09 848 25.04 3.8 38.9 74 -0.4 31.3
05:05 1019 30.09 848 25.04 3.7 38.7 75 -0.3 31.5
05:10 1019 30.09 848 25.04 3.6 38.5 76 -0.3 31.5
05:15 1019 30.09 848 25.04 3.5 38.2 77 -0.2 31.6
05:20 1019 30.09 848 25.04 3.2 37.7 78 -0.3 31.5
05:25 1019 30.09 848 25.04 3.1 37.6 78 -0.3 31.4
05:30 1019 30.09 848 25.04 3.2 37.8 78 -0.3 31.5
05:35 1019 30.09 848 25.04 3.1 37.6 79 -0.2 31.6
05:40 1019 30.09 848 25.04 3 37.4 78 -0.4 31.2
05:45 1019 30.09 848 25.04 3.1 37.5 77 -0.5 31.1
05:50 1019 30.09 849 25.07 3.2 37.7 77 -0.6 31
05:55 1019 30.09 849 25.07 3.3 37.9 77 -0.5 31.2
06:00 1020 30.12 849 25.07 3.2 37.8 77 -0.3 31.4
06:05 1020 30.12 849 25.07 3.3 37.9 77 -0.4 31.2
06:10 1020 30.12 849 25.07 3.2 37.7 77 -0.4 31.3
06:15 1020 30.12 849 25.07 3 37.4 78 -0.4 31.3
06:20 1020 30.12 849 25.07 2.8 37.1 79 -0.4 31.3
06:25 1020 30.12 849 25.07 2.7 36.8 80 -0.4 31.3
06:30 1020 30.12 849 25.07 2.6 36.7 80 -0.5 31.1
06:35 1020 30.12 849 25.07 2.6 36.8 80 -0.5 31.2
06:40 1020 30.12 849 25.07 2.7 36.9 79 -0.6 31
06:45 1020 30.12 849 25.07 2.8 37.1 79 -0.5 31.1
06:50 1020 30.12 849 25.07 2.7 36.9 79 -0.5 31.2
06:55 1020 30.12 849 25.07 2.8 37 79 -0.6 30.9
07:00 1020 30.12 849 25.07 2.9 37.3 78 -0.5 31
07:05 1020 30.12 849 25.07 3.1 37.6 76 -0.8 30.6
07:10 1020 30.12 849 25.07 3.4 38.2 75 -0.6 30.9
07:15 1020 30.12 849 25.07 3.4 38.1 75 -0.6 31
07:20 1020 30.12 849 25.07 3.3 37.9 77 -0.5 31.2
07:25 1020 30.12 849 25.07 3 37.3 78 -0.4 31.2
07:30 1020 30.12 849 25.07 2.7 36.9 79 -0.5 31
07:35 1020 30.12 849 25.07 2.7 36.9 79 -0.5 31.1
07:40 1020 30.12 849 25.07 2.6 36.7 80 -0.5 31.1
07:45 1020 30.12 849 25.07 2.5 36.5 80 -0.6 30.9
07:50 1020 30.12 849 25.07 2.8 37 79 -0.5 31
07:55 1020 30.12 849 25.07 2.6 36.7 79 -0.6 31
08:00 1020 30.12 849 25.07 2.5 36.5 80 -0.6 30.9
08:05 1020 30.12 849 25.07 2.6 36.7 79 -0.7 30.7
08:10 1020 30.12 849 25.07 2.9 37.3 77 -0.8 30.6
08:15 1020 30.12 850 25.1 3.1 37.5 76 -0.7 30.8
08:20 1020 30.12 850 25.1 3 37.4 77 -0.7 30.8
08:25 1020 30.12 850 25.1 3.1 37.5 76 -0.7 30.7
08:30 1020 30.12 850 25.1 3.3 37.9 75 -0.7 30.7
08:35 1021 30.15 850 25.1 3.3 38 75 -0.7 30.7
08:40 1021 30.15 850 25.1 3.2 37.8 75 -0.7 30.7
08:45 1021 30.15 850 25.1 3 37.3 77 -0.7 30.7
08:50 1021 30.15 850 25.1 2.8 37.1 77 -0.8 30.6
08:55 1021 30.15 850 25.1 2.7 36.9 77 -1 30.3
09:00 1021 30.15 850 25.1 2.9 37.2 75 -1.2 29.9
09:05 1021 30.15 850 25.1 3 37.4 75 -1 30.2
09:10 1021 30.15 850 25.1 2.6 36.7 77 -1.1 30
09:15 1021 30.15 850 25.1 2.3 36.2 76 -1.5 29.2
09:20 1021 30.15 850 25.1 2.5 36.5 75 -1.5 29.3
09:25 1021 30.15 850 25.1 2.5 36.5 75 -1.5 29.4
09:30 1021 30.15 850 25.1 2.5 36.6 75 -1.5 29.3
09:35 1021 30.15 850 25.1 2.7 36.8 74 -1.5 29.4
09:40 1021 30.15 850 25.1 2.7 36.8 74 -1.5 29.3
09:45 1021 30.15 850 25.1 2.5 36.5 75 -1.6 29.2
09:50 1021 30.15 850 25.1 2.8 37 73 -1.5 29.2
09:55 1021 30.15 850 25.1 3 37.4 73 -1.5 29.4
10:00 1021 30.15 850 25.1 3.2 37.8 72 -1.4 29.5
10:05 1021 30.15 850 25.1 3.5 38.3 69 -1.6 29.1
10:10 1021 30.15 851 25.13 3.9 39 68 -1.5 29.2
10:15 1021 30.15 851 25.13 3.9 39 70 -1 30.2
10:20 1021 30.15 851 25.13 3.5 38.4 72 -1.1 30
10:25 1022 30.18 851 25.13 3.4 38.2 71 -1.3 29.6
10:30 1022 30.18 851 25.13 3.4 38.1 72 -1.2 29.9
10:35 1022 30.18 851 25.13 3.3 37.9 72 -1.2 29.8
10:40 1022 30.18 851 25.13 3.3 37.9 73 -1.1 30
10:45 1022 30.18 851 25.13 3.3 38 72 -1.3 29.7
10:50 1022 30.18 851 25.13 3.5 38.2 72 -1.1 30
10:55 1022 30.18 851 25.13 3.4 38.1 72 -1.3 29.7
11:00 1022 30.18 851 25.13 3.5 38.4 70 -1.4 29.5
11:05 1022 30.18 851 25.13 3.9 39 68 -1.5 29.3
11:10 1022 30.18 851 25.13 4.2 39.6 67 -1.2 29.8
11:15 1022 30.18 851 25.13 4.4 39.9 68 -1 30.1
11:20 1022 30.18 851 25.13 4.6 40.2 67 -1 30.2
11:25 1022 30.18 851 25.13 4.9 40.8 65 -1.2 29.9
11:30 1022 30.18 852 25.16 5 41 66 -0.8 30.5
11:35 1022 30.18 852 25.16 5.1 41.2 62 -1.5 29.3
11:40 1022 30.18 852 25.16 5.3 41.5 64 -1 30.1
11:45 1022 30.18 852 25.16 5.4 41.8 63 -1 30.2
11:50 1022 30.18 852 25.16 5.6 42 63 -0.9 30.4
11:55 1022 30.18 852 25.16 5.7 42.3 64 -0.6 31
12:00 1022 30.18 852 25.16 5.7 42.3 63 -0.7 30.7
12:05 1022 30.18 851 25.13 5.9 42.7 64 -0.3 31.5
12:10 1022 30.18 851 25.13 6.1 42.9 62 -0.7 30.8
12:15 1022 30.18 851 25.13 6.2 43.2 60 -1 30.2
12:20 1022 30.18 851 25.13 6.6 44 57 -1.2 29.9
12:25 1022 30.18 851 25.13 6.8 44.2 56 -1.4 29.5
12:30 1022 30.18 851 25.13 6.8 44.2 56 -1.3 29.7
12:35 1022 30.18 851 25.13 6.8 44.3 55 -1.5 29.4
12:40 1022 30.18 851 25.13 7 44.6 54 -1.6 29.2
12:45 1022 30.18 851 25.13 7.2 45 56 -0.9 30.4
12:50 1022 30.18 851 25.13 7.2 45 56 -0.9 30.3
12:55 1022 30.18 851 25.13 7.7 45.8 56 -0.7 30.8
13:00 1022 30.18 851 25.13 8.4 47.1 52 -0.9 30.3
13:05 1022 30.18 851 25.13 8.3 46.9 51 -1.3 29.7
13:10 1022 30.18 851 25.13 8.5 47.2 50 -1.4 29.5
13:15 1022 30.18 851 25.13 8.8 47.9 51 -0.6 30.9
13:20 1022 30.18 851 25.13 9 48.1 52 -0.2 31.6
13:25 1022 30.18 851 25.13 9.6 49.2 47 -1.2 29.8
13:30 1022 30.18 851 25.13 9.7 49.5 46 -1.2 29.8
13:35 1022 30.18 851 25.13 9.9 49.8 43 -2.1 28.2
13:40 1022 30.18 851 25.13 9.7 49.5 44 -1.8 28.8
13:45 1022 30.18 851 25.13 10.3 50.6 43 -1.8 28.7
13:50 1022 30.18 851 25.13 10.9 51.6 42 -1.6 29.1
13:55 1022 30.18 851 25.13 10.9 51.6 39 -2.5 27.5
14:00 1022 30.18 851 25.13 10.6 51.2 45 -0.8 30.6
14:05 1022 30.18 851 25.13 10.5 50.9 41 -2.1 28.1
14:10 1022 30.18 851 25.13 10.2 50.3 46 -0.8 30.5
14:15 1022 30.18 851 25.13 10.1 50.2 42 -2.1 28.2
14:20 1022 30.18 851 25.13 11 51.8 40 -2.1 28.2
14:25 1022 30.18 851 25.13 10.3 50.6 42 -1.9 28.7
14:30 1022 30.18 851 25.13 10.5 50.9 43 -1.7 29
14:35 1022 30.18 851 25.13 11.3 52.3 39 -2.2 28
14:40 1022 30.18 851 25.13 11.8 53.2 37 -2.3 27.8
14:45 1022 30.18 851 25.13 12.1 53.8 35 -2.9 26.8
14:50 1022 30.18 851 25.13 11.7 53 37 -2.5 27.5
14:55 1022 30.18 851 25.13 11.1 52 43 -1 30.2
15:00 1022 30.18 851 25.13 11 51.9 39 -2.2 28.1
15:05 1022 30.18 851 25.13 11.7 53 36 -3 26.7
15:10 1022 30.18 851 25.13 12.1 53.7 37 -2.3 27.9
15:15 1022 30.18 851 25.13 12.2 53.9 37 -1.9 28.6
15:20 1022 30.18 851 25.13 12.3 54.1 33 -3.4 25.9
15:25 1022 30.18 851 25.13 12.1 53.8 34 -3.2 26.2
15:30 1022 30.18 851 25.13 11.7 53.1 37 -2.3 27.9
15:35 1022 30.18 851 25.13 10.8 51.4 40 -2.4 27.7
15:40 1022 30.18 851 25.13 10.1 50.3 41 -2.6 27.4
15:45 1022 30.18 851 25.13 10.1 50.1 43 -1.9 28.6
15:50 1022 30.18 851 25.13 10 49.9 41 -2.8 27
15:55 1022 30.18 851 25.13 10.2 50.4 41 -2.5 27.5
16:00 1022 30.18 851 25.13 10.2 50.4 39 -2.9 26.7
16:05 1022 30.18 851 25.13 10.5 50.8 40 -2.6 27.3
16:10 1022 30.18 851 25.13 10.8 51.4 38 -3 26.5
16:15 1022 30.18 851 25.13 10.8 51.4 39 -2.6 27.3
16:20 1022 30.18 851 25.13 10.2 50.3 40 -2.8 27
16:25 1022 30.18 851 25.13 9.8 49.6 40 -3.2 26.2
16:30 1022 30.18 851 25.13 9.7 49.5 41 -2.8 26.9
16:35 1022 30.18 851 25.13 9.4 48.8 42 -3 26.6
16:40 1022 30.18 851 25.13 9.1 48.3 43 -2.8 27
16:45 1022 30.18 851 25.13 9 48.1 43 -2.9 26.7
16:50 1022 30.18 851 25.13 8.9 48 43 -2.9 26.8
16:55 1022 30.18 851 25.13 8.8 47.8 43 -2.9 26.7
17:00 1022 30.18 851 25.13 8.8 47.8 45 -2.3 27.8
17:05 1022 30.18 851 25.13 8.8 47.9 46 -2.2 28
17:10 1022 30.18 852 25.16 8.6 47.4 48 -1.8 28.7
17:15 1022 30.18 852 25.16 7.8 46 51 -1.7 29
17:20 1022 30.18 852 25.16 7.1 44.9 53 -1.8 28.8
17:25 1022 30.18 852 25.16 7.1 44.7 54 -1.7 29
17:30 1022 30.18 852 25.16 6.9 44.4 54 -1.9 28.6
17:35 1023 30.21 852 25.16 6.6 43.8 54 -2.1 28.2
17:40 1023 30.21 852 25.16 6.5 43.7 54 -2.2 28.1
17:45 1023 30.21 852 25.16 6.2 43.2 54 -2.3 27.9
17:50 1023 30.21 852 25.16 6.1 42.9 55 -2.2 28
17:55 1022 30.18 852 25.16 6 42.7 56 -2.2 28
18:00 1023 30.21 852 25.16 5.8 42.4 57 -2 28.4
18:05 1023 30.21 852 25.16 5.4 41.8 59 -2 28.4
18:10 1023 30.21 852 25.16 5 40.9 61 -2 28.4
18:15 1023 30.21 852 25.16 4.6 40.2 63 -2 28.5
18:20 1023 30.21 852 25.16 4.3 39.8 61 -2.6 27.3
18:25 1023 30.21 852 25.16 4.6 40.2 60 -2.6 27.3
18:30 1023 30.21 852 25.16 4.7 40.4 60 -2.4 27.8
18:35 1023 30.21 852 25.16 4.8 40.7 57 -3 26.5
18:40 1023 30.21 852 25.16 5.2 41.4 57 -2.6 27.3
18:45 1023 30.21 852 25.16 4.7 40.5 59 -2.5 27.5
18:50 1023 30.21 852 25.16 3.9 39.1 65 -2.1 28.2
18:55 1023 30.21 852 25.16 3.4 38.1 64 -2.8 26.9
19:00 1023 30.21 852 25.16 3.7 38.6 62 -2.9 26.7
19:05 1023 30.21 852 25.16 3.9 39.1 61 -2.9 26.8
19:10 1023 30.21 852 25.16 4 39.1 62 -2.7 27.1
19:15 1023 30.21 852 25.16 3.8 38.8 62 -2.7 27.1
19:20 1023 30.21 852 25.16 3.6 38.4 64 -2.7 27.2
19:25 1023 30.21 852 25.16 3.1 37.6 66 -2.6 27.4
19:30 1023 30.21 852 25.16 2.7 36.9 66 -3 26.6
19:35 1023 30.21 852 25.16 2.9 37.1 65 -3 26.6
19:40 1023 30.21 852 25.16 2.9 37.3 64 -3.2 26.3
19:45 1023 30.21 852 25.16 3.4 38.2 60 -3.6 25.5
19:50 1023 30.21 852 25.16 4.2 39.6 56 -3.7 25.4
19:55 1023 30.21 852 25.16 4.2 39.5 58 -3.4 26
20:00 1023 30.21 852 25.16 4.1 39.3 58 -3.5 25.7
20:05 1023 30.21 852 25.16 4.2 39.5 57 -3.5 25.7
20:10 1023 30.21 852 25.16 4.3 39.8 57 -3.3 26
20:15 1023 30.21 852 25.16 4.2 39.5 58 -3.4 26
20:20 1023 30.21 852 25.16 4.1 39.3 59 -3.2 26.2
20:25 1023 30.21 852 25.16 3.9 39 58 -3.5 25.6
20:30 1023 30.21 852 25.16 4.1 39.4 58 -3.4 26
20:35 1023 30.21 852 25.16 4.3 39.7 57 -3.5 25.7
20:40 1023 30.21 852 25.16 4.6 40.3 55 -3.6 25.4
20:45 1023 30.21 852 25.16 5 41 53 -3.7 25.4
20:50 1023 30.21 852 25.16 4.8 40.7 54 -3.8 25.2
20:55 1023 30.21 852 25.16 4.9 40.8 54 -3.7 25.4
21:00 1023 30.21 852 25.16 4.7 40.4 55 -3.6 25.5
21:05 1023 30.21 852 25.16 4.4 39.9 57 -3.5 25.7
21:10 1023 30.21 852 25.16 4.2 39.5 57 -3.5 25.7
21:15 1023 30.21 852 25.16 4 39.2 58 -3.5 25.6
21:20 1023 30.21 852 25.16 4 39.2 58 -3.5 25.8
21:25 1023 30.21 852 25.16 4 39.2 57 -3.6 25.5
21:30 1023 30.21 852 25.16 4.2 39.5 58 -3.4 25.8
21:35 1023 30.21 852 25.16 4 39.1 59 -3.4 25.8
21:40 1023 30.21 852 25.16 4.1 39.3 57 -3.8 25.2
21:45 1023 30.21 852 25.16 4.1 39.5 58 -3.5 25.8
21:50 1023 30.21 852 25.16 4 39.1 58 -3.6 25.6
21:55 1023 30.21 852 25.16 4.1 39.3 57 -3.7 25.3
22:00 1023 30.21 852 25.16 4.2 39.5 57 -3.5 25.7
22:05 1023 30.21 852 25.16 3.8 38.8 59 -3.5 25.8
22:10 1023 30.21 852 25.16 3.6 38.5 59 -3.7 25.4
22:15 1023 30.21 852 25.16 3.6 38.4 59 -3.6 25.5
22:20 1023 30.21 852 25.16 3.6 38.4 59 -3.6 25.5
22:25 1023 30.21 852 25.16 3.3 38 60 -3.6 25.5
22:30 1023 30.21 852 25.16 3.1 37.6 61 -3.7 25.3
22:35 1023 30.21 852 25.16 3.1 37.6 61 -3.8 25.2
22:40 1023 30.21 852 25.16 3.2 37.7 60 -3.9 25
22:45 1023 30.21 852 25.16 3.1 37.6 61 -3.7 25.3
22:50 1023 30.21 852 25.16 3.1 37.5 60 -4 24.8
22:55 1023 30.21 852 25.16 3.2 37.7 60 -3.9 25
23:00 1023 30.21 852 25.16 3.2 37.7 60 -3.9 25
23:05 1023 30.21 852 25.16 3.3 37.9 59 -4 24.8
23:10 1023 30.21 852 25.16 3.1 37.7 60 -3.9 25
23:15 1023 30.21 852 25.16 3 37.3 60 -4 24.8
23:20 1023 30.21 852 25.16 3.1 37.6 60 -4 24.8
23:25 1023 30.21 852 25.16 3 37.3 60 -4.1 24.6
23:30 1023 30.21 852 25.16 2.9 37.2 60 -4.1 24.6
23:35 1023 30.21 852 25.16 2.9 37.1 60 -4.2 24.4
23:40 1023 30.21 852 25.16 2.8 37.1 60 -4.1 24.7
23:45 1023 30.21 852 25.16 2.7 36.9 61 -4.2 24.5
23:50 1023 30.21 852 25.16 2.7 36.8 61 -4.1 24.5
23:55 1023 30.21 852 25.16 2.8 37.1 60 -4.2 24.4
24:00 1023 30.21 852 25.16 2.8 37 60 -4.2 24.5